sensor_id;sensor_type;location;lat;lon;timestamp;temperature;humidity
66710;DHT22;53624;0.000;0.000;2023-05-29T00:01:27;23.30;91.90
66710;DHT22;53624;0.000;0.000;2023-05-29T00:03:54;23.30;91.90
66710;DHT22;53624;0.000;0.000;2023-05-29T00:06:22;23.30;91.90
66710;DHT22;53624;0.000;0.000;2023-05-29T00:08:49;23.30;91.90
66710;DHT22;53624;0.000;0.000;2023-05-29T00:11:16;23.20;91.80
66710;DHT22;53624;0.000;0.000;2023-05-29T00:13:45;23.20;91.90
66710;DHT22;53624;0.000;0.000;2023-05-29T00:16:13;23.20;91.90
66710;DHT22;53624;0.000;0.000;2023-05-29T00:18:40;23.20;91.90
66710;DHT22;53624;0.000;0.000;2023-05-29T00:21:11;23.20;91.90
66710;DHT22;53624;0.000;0.000;2023-05-29T00:23:39;23.20;91.90
66710;DHT22;53624;0.000;0.000;2023-05-29T00:26:07;23.10;91.90
66710;DHT22;53624;0.000;0.000;2023-05-29T00:28:35;23.10;91.90
66710;DHT22;53624;0.000;0.000;2023-05-29T00:31:04;23.10;91.90
66710;DHT22;53624;0.000;0.000;2023-05-29T00:33:32;23.10;91.80
66710;DHT22;53624;0.000;0.000;2023-05-29T00:35:59;23.10;91.90
66710;DHT22;53624;0.000;0.000;2023-05-29T00:38:27;23.10;91.90
66710;DHT22;53624;0.000;0.000;2023-05-29T00:40:54;23.00;91.90
66710;DHT22;53624;0.000;0.000;2023-05-29T00:43:22;23.00;91.90
66710;DHT22;53624;0.000;0.000;2023-05-29T00:45:50;23.00;91.90
66710;DHT22;53624;0.000;0.000;2023-05-29T00:48:19;23.00;91.90
66710;DHT22;53624;0.000;0.000;2023-05-29T00:50:46;23.00;91.90
66710;DHT22;53624;0.000;0.000;2023-05-29T00:53:14;22.90;91.90
66710;DHT22;53624;0.000;0.000;2023-05-29T00:55:41;22.90;91.90
66710;DHT22;53624;0.000;0.000;2023-05-29T00:58:09;22.90;91.90
66710;DHT22;53624;0.000;0.000;2023-05-29T01:00:36;22.90;91.90
66710;DHT22;53624;0.000;0.000;2023-05-29T01:03:05;22.90;91.90
66710;DHT22;53624;0.000;0.000;2023-05-29T01:05:35;22.90;91.90
66710;DHT22;53624;0.000;0.000;2023-05-29T01:08:02;22.90;91.90
66710;DHT22;53624;0.000;0.000;2023-05-29T01:10:30;22.80;91.80
66710;DHT22;53624;0.000;0.000;2023-05-29T01:12:59;22.80;91.90
66710;DHT22;53624;0.000;0.000;2023-05-29T01:15:29;22.80;91.90
66710;DHT22;53624;0.000;0.000;2023-05-29T01:18:07;22.80;92.20
66710;DHT22;53624;0.000;0.000;2023-05-29T01:20:38;22.80;91.90
66710;DHT22;53624;0.000;0.000;2023-05-29T01:23:14;22.80;91.90
66710;DHT22;53624;0.000;0.000;2023-05-29T01:25:51;22.80;91.90
66710;DHT22;53624;0.000;0.000;2023-05-29T01:28:25;22.70;91.90
66710;DHT22;53624;0.000;0.000;2023-05-29T01:30:54;22.70;91.90
66710;DHT22;53624;0.000;0.000;2023-05-29T01:33:23;22.70;91.90
66710;DHT22;53624;0.000;0.000;2023-05-29T01:35:51;22.70;91.90
66710;DHT22;53624;0.000;0.000;2023-05-29T01:38:18;22.70;91.90
66710;DHT22;53624;0.000;0.000;2023-05-29T01:40:46;22.70;91.90
66710;DHT22;53624;0.000;0.000;2023-05-29T01:43:14;22.60;91.90
66710;DHT22;53624;0.000;0.000;2023-05-29T01:45:43;22.60;91.90
66710;DHT22;53624;0.000;0.000;2023-05-29T01:48:12;22.60;91.90
66710;DHT22;53624;0.000;0.000;2023-05-29T01:50:40;22.60;91.90
66710;DHT22;53624;0.000;0.000;2023-05-29T01:53:09;22.60;92.00
66710;DHT22;53624;0.000;0.000;2023-05-29T01:55:37;22.60;92.00
66710;DHT22;53624;0.000;0.000;2023-05-29T01:58:04;22.60;92.00
66710;DHT22;53624;0.000;0.000;2023-05-29T02:00:32;22.60;92.00
66710;DHT22;53624;0.000;0.000;2023-05-29T02:03:01;22.60;92.00
66710;DHT22;53624;0.000;0.000;2023-05-29T02:05:29;22.60;92.00
66710;DHT22;53624;0.000;0.000;2023-05-29T02:07:56;22.50;92.00
66710;DHT22;53624;0.000;0.000;2023-05-29T02:10:24;22.50;92.00
66710;DHT22;53624;0.000;0.000;2023-05-29T02:12:51;22.50;92.00
66710;DHT22;53624;0.000;0.000;2023-05-29T02:15:18;22.50;92.00
66710;DHT22;53624;0.000;0.000;2023-05-29T02:17:47;22.50;92.00
66710;DHT22;53624;0.000;0.000;2023-05-29T02:20:16;22.50;92.10
66710;DHT22;53624;0.000;0.000;2023-05-29T02:22:44;22.50;92.00
66710;DHT22;53624;0.000;0.000;2023-05-29T02:25:12;22.40;92.00
66710;DHT22;53624;0.000;0.000;2023-05-29T02:27:39;22.40;92.00
66710;DHT22;53624;0.000;0.000;2023-05-29T02:30:07;22.40;92.00
66710;DHT22;53624;0.000;0.000;2023-05-29T02:32:34;22.40;92.10
66710;DHT22;53624;0.000;0.000;2023-05-29T02:35:05;22.40;92.00
66710;DHT22;53624;0.000;0.000;2023-05-29T02:37:34;22.40;92.00
66710;DHT22;53624;0.000;0.000;2023-05-29T02:40:02;22.40;92.00
66710;DHT22;53624;0.000;0.000;2023-05-29T02:42:29;22.40;92.00
66710;DHT22;53624;0.000;0.000;2023-05-29T02:44:57;22.40;92.10
66710;DHT22;53624;0.000;0.000;2023-05-29T02:47:24;22.40;92.00
66710;DHT22;53624;0.000;0.000;2023-05-29T02:49:51;22.30;92.10
66710;DHT22;53624;0.000;0.000;2023-05-29T02:52:19;22.30;92.00
66710;DHT22;53624;0.000;0.000;2023-05-29T02:54:48;22.30;92.10
66710;DHT22;53624;0.000;0.000;2023-05-29T02:57:15;22.30;92.10
66710;DHT22;53624;0.000;0.000;2023-05-29T02:59:43;22.30;92.10
66710;DHT22;53624;0.000;0.000;2023-05-29T03:02:11;22.30;92.10
66710;DHT22;53624;0.000;0.000;2023-05-29T03:04:39;22.30;92.10
66710;DHT22;53624;0.000;0.000;2023-05-29T03:07:07;22.30;92.10
66710;DHT22;53624;0.000;0.000;2023-05-29T03:09:35;22.30;92.10
66710;DHT22;53624;0.000;0.000;2023-05-29T03:12:04;22.20;92.10
66710;DHT22;53624;0.000;0.000;2023-05-29T03:14:32;22.30;92.10
66710;DHT22;53624;0.000;0.000;2023-05-29T03:17:04;22.20;92.10
66710;DHT22;53624;0.000;0.000;2023-05-29T03:19:31;22.20;92.10
66710;DHT22;53624;0.000;0.000;2023-05-29T03:21:59;22.20;92.10
66710;DHT22;53624;0.000;0.000;2023-05-29T03:24:26;22.20;92.10
66710;DHT22;53624;0.000;0.000;2023-05-29T03:26:54;22.20;92.10
66710;DHT22;53624;0.000;0.000;2023-05-29T03:29:25;22.20;92.10
66710;DHT22;53624;0.000;0.000;2023-05-29T03:31:54;22.10;92.10
66710;DHT22;53624;0.000;0.000;2023-05-29T03:34:26;22.10;92.20
66710;DHT22;53624;0.000;0.000;2023-05-29T03:36:58;22.10;92.10
66710;DHT22;53624;0.000;0.000;2023-05-29T03:39:27;22.10;92.20
66710;DHT22;53624;0.000;0.000;2023-05-29T03:41:54;22.10;92.20
66710;DHT22;53624;0.000;0.000;2023-05-29T03:44:22;22.10;92.20
66710;DHT22;53624;0.000;0.000;2023-05-29T03:46:51;22.10;92.20
66710;DHT22;53624;0.000;0.000;2023-05-29T03:49:19;22.10;92.20
66710;DHT22;53624;0.000;0.000;2023-05-29T03:51:46;22.10;92.20
66710;DHT22;53624;0.000;0.000;2023-05-29T03:54:14;22.10;92.30
66710;DHT22;53624;0.000;0.000;2023-05-29T03:56:43;22.10;92.30
66710;DHT22;53624;0.000;0.000;2023-05-29T03:59:13;22.10;92.30
66710;DHT22;53624;0.000;0.000;2023-05-29T04:01:40;22.00;92.20
66710;DHT22;53624;0.000;0.000;2023-05-29T04:04:09;22.00;92.20
66710;DHT22;53624;0.000;0.000;2023-05-29T04:06:36;22.00;92.30
66710;DHT22;53624;0.000;0.000;2023-05-29T04:09:04;22.00;92.30
66710;DHT22;53624;0.000;0.000;2023-05-29T04:11:32;22.00;92.30
66710;DHT22;53624;0.000;0.000;2023-05-29T04:14:01;22.00;92.30
66710;DHT22;53624;0.000;0.000;2023-05-29T04:16:29;22.00;92.30
66710;DHT22;53624;0.000;0.000;2023-05-29T04:18:56;22.00;92.30
66710;DHT22;53624;0.000;0.000;2023-05-29T04:21:28;22.00;92.30
66710;DHT22;53624;0.000;0.000;2023-05-29T04:23:58;22.00;92.30
66710;DHT22;53624;0.000;0.000;2023-05-29T04:26:26;22.00;92.30
66710;DHT22;53624;0.000;0.000;2023-05-29T04:28:53;22.00;92.30
66710;DHT22;53624;0.000;0.000;2023-05-29T04:31:24;22.00;92.30
66710;DHT22;53624;0.000;0.000;2023-05-29T04:33:53;22.00;92.30
66710;DHT22;53624;0.000;0.000;2023-05-29T04:36:22;22.00;92.20
66710;DHT22;53624;0.000;0.000;2023-05-29T04:38:56;22.00;92.20
66710;DHT22;53624;0.000;0.000;2023-05-29T04:41:25;22.00;92.30
66710;DHT22;53624;0.000;0.000;2023-05-29T04:43:55;22.00;92.30
66710;DHT22;53624;0.000;0.000;2023-05-29T04:46:28;22.00;92.30
66710;DHT22;53624;0.000;0.000;2023-05-29T04:48:56;22.00;92.20
66710;DHT22;53624;0.000;0.000;2023-05-29T04:51:23;22.00;92.20
66710;DHT22;53624;0.000;0.000;2023-05-29T04:53:51;22.00;92.20
66710;DHT22;53624;0.000;0.000;2023-05-29T04:56:20;22.00;92.20
66710;DHT22;53624;0.000;0.000;2023-05-29T04:58:48;22.00;92.20
66710;DHT22;53624;0.000;0.000;2023-05-29T05:01:17;22.00;92.20
66710;DHT22;53624;0.000;0.000;2023-05-29T05:03:45;22.00;92.20
66710;DHT22;53624;0.000;0.000;2023-05-29T05:06:13;22.00;92.20
66710;DHT22;53624;0.000;0.000;2023-05-29T05:08:43;22.00;92.10
66710;DHT22;53624;0.000;0.000;2023-05-29T05:11:10;22.00;92.10
66710;DHT22;53624;0.000;0.000;2023-05-29T05:13:41;22.00;92.10
66710;DHT22;53624;0.000;0.000;2023-05-29T05:16:08;22.00;92.10
66710;DHT22;53624;0.000;0.000;2023-05-29T05:18:38;22.10;92.10
66710;DHT22;53624;0.000;0.000;2023-05-29T05:21:07;22.10;92.10
66710;DHT22;53624;0.000;0.000;2023-05-29T05:23:36;22.10;92.10
66710;DHT22;53624;0.000;0.000;2023-05-29T05:26:03;22.10;92.10
66710;DHT22;53624;0.000;0.000;2023-05-29T05:28:33;22.10;92.10
66710;DHT22;53624;0.000;0.000;2023-05-29T05:31:02;22.10;92.10
66710;DHT22;53624;0.000;0.000;2023-05-29T05:33:31;22.10;92.00
66710;DHT22;53624;0.000;0.000;2023-05-29T05:35:59;22.20;92.00
66710;DHT22;53624;0.000;0.000;2023-05-29T05:38:27;22.20;92.00
66710;DHT22;53624;0.000;0.000;2023-05-29T05:40:54;22.20;92.30
66710;DHT22;53624;0.000;0.000;2023-05-29T05:43:27;22.20;92.00
66710;DHT22;53624;0.000;0.000;2023-05-29T05:46:16;22.30;91.90
66710;DHT22;53624;0.000;0.000;2023-05-29T05:48:44;22.40;91.80
66710;DHT22;53624;0.000;0.000;2023-05-29T05:51:11;22.50;91.70
66710;DHT22;53624;0.000;0.000;2023-05-29T05:53:40;22.50;91.70
66710;DHT22;53624;0.000;0.000;2023-05-29T05:56:08;22.60;91.70
66710;DHT22;53624;0.000;0.000;2023-05-29T05:58:36;22.70;91.70
66710;DHT22;53624;0.000;0.000;2023-05-29T06:01:03;22.70;91.60
66710;DHT22;53624;0.000;0.000;2023-05-29T06:03:34;22.90;91.50
66710;DHT22;53624;0.000;0.000;2023-05-29T06:06:06;23.00;91.40
66710;DHT22;53624;0.000;0.000;2023-05-29T06:08:34;23.10;91.30
66710;DHT22;53624;0.000;0.000;2023-05-29T06:11:02;23.30;91.20
66710;DHT22;53624;0.000;0.000;2023-05-29T06:13:31;23.40;91.00
66710;DHT22;53624;0.000;0.000;2023-05-29T06:16:05;23.60;90.80
66710;DHT22;53624;0.000;0.000;2023-05-29T06:18:34;23.70;90.70
66710;DHT22;53624;0.000;0.000;2023-05-29T06:21:02;23.90;90.50
66710;DHT22;53624;0.000;0.000;2023-05-29T06:23:31;24.00;90.40
66710;DHT22;53624;0.000;0.000;2023-05-29T06:26:00;24.20;90.30
66710;DHT22;53624;0.000;0.000;2023-05-29T06:28:27;24.30;90.10
66710;DHT22;53624;0.000;0.000;2023-05-29T06:30:55;24.50;90.00
66710;DHT22;53624;0.000;0.000;2023-05-29T06:33:23;24.60;89.70
66710;DHT22;53624;0.000;0.000;2023-05-29T06:35:52;24.80;89.40
66710;DHT22;53624;0.000;0.000;2023-05-29T06:38:20;24.90;88.90
66710;DHT22;53624;0.000;0.000;2023-05-29T06:40:48;25.00;88.80
66710;DHT22;53624;0.000;0.000;2023-05-29T06:43:15;24.90;89.20
66710;DHT22;53624;0.000;0.000;2023-05-29T06:45:47;24.80;89.30
66710;DHT22;53624;0.000;0.000;2023-05-29T06:48:17;24.80;89.40
66710;DHT22;53624;0.000;0.000;2023-05-29T06:50:47;24.80;89.50
66710;DHT22;53624;0.000;0.000;2023-05-29T06:53:35;25.10;89.20
66710;DHT22;53624;0.000;0.000;2023-05-29T06:56:03;25.50;88.10
66710;DHT22;53624;0.000;0.000;2023-05-29T06:58:31;25.70;87.40
66710;DHT22;53624;0.000;0.000;2023-05-29T07:00:58;25.80;87.30
66710;DHT22;53624;0.000;0.000;2023-05-29T07:03:33;26.10;86.70
66710;DHT22;53624;0.000;0.000;2023-05-29T07:06:02;26.30;86.20
66710;DHT22;53624;0.000;0.000;2023-05-29T07:08:31;26.50;85.80
66710;DHT22;53624;0.000;0.000;2023-05-29T07:11:00;26.60;85.40
66710;DHT22;53624;0.000;0.000;2023-05-29T07:13:28;26.80;84.90
66710;DHT22;53624;0.000;0.000;2023-05-29T07:15:55;27.10;84.50
66710;DHT22;53624;0.000;0.000;2023-05-29T07:18:29;27.40;84.00
66710;DHT22;53624;0.000;0.000;2023-05-29T07:20:59;27.70;83.50
66710;DHT22;53624;0.000;0.000;2023-05-29T07:23:27;28.00;82.80
66710;DHT22;53624;0.000;0.000;2023-05-29T07:25:56;28.30;82.20
66710;DHT22;53624;0.000;0.000;2023-05-29T07:28:26;28.60;81.60
66710;DHT22;53624;0.000;0.000;2023-05-29T07:30:54;28.90;81.10
66710;DHT22;53624;0.000;0.000;2023-05-29T07:33:21;29.10;80.50
66710;DHT22;53624;0.000;0.000;2023-05-29T07:35:49;29.40;80.00
66710;DHT22;53624;0.000;0.000;2023-05-29T07:38:17;29.70;79.50
66710;DHT22;53624;0.000;0.000;2023-05-29T07:40:44;29.90;79.00
66710;DHT22;53624;0.000;0.000;2023-05-29T07:43:33;30.20;78.50
66710;DHT22;53624;0.000;0.000;2023-05-29T07:46:04;30.40;77.90
66710;DHT22;53624;0.000;0.000;2023-05-29T07:48:31;30.70;77.60
66710;DHT22;53624;0.000;0.000;2023-05-29T07:50:59;30.80;77.30
66710;DHT22;53624;0.000;0.000;2023-05-29T07:53:33;30.80;77.00
66710;DHT22;53624;0.000;0.000;2023-05-29T07:56:01;30.50;77.60
66710;DHT22;53624;0.000;0.000;2023-05-29T07:58:30;30.20;78.60
66710;DHT22;53624;0.000;0.000;2023-05-29T08:00:59;30.00;79.40
66710;DHT22;53624;0.000;0.000;2023-05-29T08:03:26;29.90;79.80
66710;DHT22;53624;0.000;0.000;2023-05-29T08:05:54;29.90;80.70
66710;DHT22;53624;0.000;0.000;2023-05-29T08:08:22;30.00;80.10
66710;DHT22;53624;0.000;0.000;2023-05-29T08:10:50;30.10;80.00
66710;DHT22;53624;0.000;0.000;2023-05-29T08:13:18;30.20;80.00
66710;DHT22;53624;0.000;0.000;2023-05-29T08:15:46;30.20;79.70
66710;DHT22;53624;0.000;0.000;2023-05-29T08:18:15;30.30;79.60
66710;DHT22;53624;0.000;0.000;2023-05-29T08:20:42;30.40;79.60
66710;DHT22;53624;0.000;0.000;2023-05-29T08:23:10;30.60;79.60
66710;DHT22;53624;0.000;0.000;2023-05-29T08:25:38;30.70;79.40
66710;DHT22;53624;0.000;0.000;2023-05-29T08:28:05;30.70;79.30
66710;DHT22;53624;0.000;0.000;2023-05-29T08:30:33;30.80;79.30
66710;DHT22;53624;0.000;0.000;2023-05-29T08:33:00;30.80;79.30
66710;DHT22;53624;0.000;0.000;2023-05-29T08:35:30;30.90;79.30
66710;DHT22;53624;0.000;0.000;2023-05-29T08:37:57;30.80;79.60
66710;DHT22;53624;0.000;0.000;2023-05-29T08:40:25;30.90;79.50
66710;DHT22;53624;0.000;0.000;2023-05-29T08:42:54;31.00;79.50
66710;DHT22;53624;0.000;0.000;2023-05-29T08:45:24;31.00;79.50
66710;DHT22;53624;0.000;0.000;2023-05-29T08:47:52;31.20;79.60
66710;DHT22;53624;0.000;0.000;2023-05-29T08:50:21;31.20;79.50
66710;DHT22;53624;0.000;0.000;2023-05-29T08:52:50;31.20;79.50
66710;DHT22;53624;0.000;0.000;2023-05-29T08:55:18;31.30;79.50
66710;DHT22;53624;0.000;0.000;2023-05-29T08:57:46;31.40;79.50
66710;DHT22;53624;0.000;0.000;2023-05-29T09:00:14;31.40;79.40
66710;DHT22;53624;0.000;0.000;2023-05-29T09:02:46;31.50;79.50
66710;DHT22;53624;0.000;0.000;2023-05-29T09:05:13;31.50;79.50
66710;DHT22;53624;0.000;0.000;2023-05-29T09:07:40;31.60;79.50
66710;DHT22;53624;0.000;0.000;2023-05-29T09:10:11;31.60;79.50
66710;DHT22;53624;0.000;0.000;2023-05-29T09:12:39;31.70;79.60
66710;DHT22;53624;0.000;0.000;2023-05-29T09:15:08;31.70;79.50
66710;DHT22;53624;0.000;0.000;2023-05-29T09:17:43;31.80;79.50
66710;DHT22;53624;0.000;0.000;2023-05-29T09:20:14;31.80;79.50
66710;DHT22;53624;0.000;0.000;2023-05-29T09:22:42;31.90;79.50
66710;DHT22;53624;0.000;0.000;2023-05-29T09:25:11;31.90;79.50
66710;DHT22;53624;0.000;0.000;2023-05-29T09:27:38;31.90;79.50
66710;DHT22;53624;0.000;0.000;2023-05-29T09:30:06;32.00;79.60
66710;DHT22;53624;0.000;0.000;2023-05-29T09:32:36;32.00;79.50
66710;DHT22;53624;0.000;0.000;2023-05-29T09:35:04;32.00;79.60
66710;DHT22;53624;0.000;0.000;2023-05-29T09:37:32;32.00;79.60
66710;DHT22;53624;0.000;0.000;2023-05-29T09:40:00;32.00;79.60
66710;DHT22;53624;0.000;0.000;2023-05-29T09:42:32;32.10;79.70
66710;DHT22;53624;0.000;0.000;2023-05-29T09:44:59;32.10;79.70
66710;DHT22;53624;0.000;0.000;2023-05-29T09:47:29;32.10;79.80
66710;DHT22;53624;0.000;0.000;2023-05-29T09:50:00;32.10;79.70
66710;DHT22;53624;0.000;0.000;2023-05-29T09:52:28;32.10;79.80
66710;DHT22;53624;0.000;0.000;2023-05-29T09:54:56;32.10;79.80
66710;DHT22;53624;0.000;0.000;2023-05-29T09:57:24;32.10;80.00
66710;DHT22;53624;0.000;0.000;2023-05-29T09:59:53;32.10;80.10
66710;DHT22;53624;0.000;0.000;2023-05-29T10:02:22;32.10;80.10
66710;DHT22;53624;0.000;0.000;2023-05-29T10:04:50;32.10;80.10
66710;DHT22;53624;0.000;0.000;2023-05-29T10:07:20;32.10;80.90
66710;DHT22;53624;0.000;0.000;2023-05-29T10:09:52;32.10;80.20
66710;DHT22;53624;0.000;0.000;2023-05-29T10:12:21;32.10;80.30
66710;DHT22;53624;0.000;0.000;2023-05-29T10:14:49;32.10;81.10
66710;DHT22;53624;0.000;0.000;2023-05-29T10:17:18;32.10;80.30
66710;DHT22;53624;0.000;0.000;2023-05-29T10:19:47;32.10;80.40
66710;DHT22;53624;0.000;0.000;2023-05-29T10:22:16;32.10;80.50
66710;DHT22;53624;0.000;0.000;2023-05-29T10:24:45;32.10;80.50
66710;DHT22;53624;0.000;0.000;2023-05-29T10:27:13;32.00;80.40
66710;DHT22;53624;0.000;0.000;2023-05-29T10:29:42;32.00;80.40
66710;DHT22;53624;0.000;0.000;2023-05-29T10:32:18;32.10;80.50
66710;DHT22;53624;0.000;0.000;2023-05-29T10:34:48;32.00;80.40
66710;DHT22;53624;0.000;0.000;2023-05-29T10:37:26;32.00;80.40
66710;DHT22;53624;0.000;0.000;2023-05-29T10:40:02;32.00;80.00
66710;DHT22;53624;0.000;0.000;2023-05-29T10:42:40;32.00;80.00
66710;DHT22;53624;0.000;0.000;2023-05-29T10:45:09;32.00;80.10
66710;DHT22;53624;0.000;0.000;2023-05-29T10:47:39;32.00;80.00
66710;DHT22;53624;0.000;0.000;2023-05-29T10:50:06;32.00;79.90
66710;DHT22;53624;0.000;0.000;2023-05-29T10:52:34;32.10;80.00
66710;DHT22;53624;0.000;0.000;2023-05-29T10:55:01;32.10;80.00
66710;DHT22;53624;0.000;0.000;2023-05-29T10:57:31;32.10;79.90
66710;DHT22;53624;0.000;0.000;2023-05-29T11:00:05;32.10;79.90
66710;DHT22;53624;0.000;0.000;2023-05-29T11:02:40;32.20;80.00
66710;DHT22;53624;0.000;0.000;2023-05-29T11:05:23;32.20;80.00
66710;DHT22;53624;0.000;0.000;2023-05-29T11:07:52;32.20;80.00
66710;DHT22;53624;0.000;0.000;2023-05-29T11:13:30;32.30;80.20
66710;DHT22;53624;0.000;0.000;2023-05-29T11:16:06;32.30;80.10
66710;DHT22;53624;0.000;0.000;2023-05-29T11:18:39;32.30;80.00
66710;DHT22;53624;0.000;0.000;2023-05-29T11:21:12;32.30;80.10
66710;DHT22;53624;0.000;0.000;2023-05-29T11:23:42;32.30;80.00
66710;DHT22;53624;0.000;0.000;2023-05-29T11:26:12;32.40;80.20
66710;DHT22;53624;0.000;0.000;2023-05-29T11:28:39;32.40;80.30
66710;DHT22;53624;0.000;0.000;2023-05-29T11:31:07;32.40;80.10
66710;DHT22;53624;0.000;0.000;2023-05-29T11:33:35;32.40;80.30
66710;DHT22;53624;0.000;0.000;2023-05-29T11:36:08;32.40;80.20
66710;DHT22;53624;0.000;0.000;2023-05-29T11:38:36;32.40;80.20
66710;DHT22;53624;0.000;0.000;2023-05-29T11:41:03;32.50;80.30
66710;DHT22;53624;0.000;0.000;2023-05-29T11:43:31;32.50;80.40
66710;DHT22;53624;0.000;0.000;2023-05-29T11:45:59;32.50;80.40
66710;DHT22;53624;0.000;0.000;2023-05-29T11:48:26;32.50;80.50
66710;DHT22;53624;0.000;0.000;2023-05-29T11:50:53;32.50;80.40
66710;DHT22;53624;0.000;0.000;2023-05-29T11:53:22;32.50;80.10
66710;DHT22;53624;0.000;0.000;2023-05-29T11:55:50;32.50;80.10
66710;DHT22;53624;0.000;0.000;2023-05-29T11:58:18;32.60;80.20
66710;DHT22;53624;0.000;0.000;2023-05-29T12:00:47;32.60;80.20
66710;DHT22;53624;0.000;0.000;2023-05-29T12:03:16;32.60;80.20
66710;DHT22;53624;0.000;0.000;2023-05-29T12:05:44;32.60;80.10
66710;DHT22;53624;0.000;0.000;2023-05-29T12:08:12;32.60;80.10
66710;DHT22;53624;0.000;0.000;2023-05-29T12:10:47;32.70;80.20
66710;DHT22;53624;0.000;0.000;2023-05-29T12:13:15;32.80;80.20
66710;DHT22;53624;0.000;0.000;2023-05-29T12:15:44;32.80;80.10
66710;DHT22;53624;0.000;0.000;2023-05-29T12:18:11;32.80;79.80
66710;DHT22;53624;0.000;0.000;2023-05-29T12:20:39;32.80;79.70
66710;DHT22;53624;0.000;0.000;2023-05-29T12:23:06;32.80;79.50
66710;DHT22;53624;0.000;0.000;2023-05-29T12:25:34;32.90;79.60
66710;DHT22;53624;0.000;0.000;2023-05-29T12:28:04;32.90;79.50
66710;DHT22;53624;0.000;0.000;2023-05-29T12:30:36;32.90;79.70
66710;DHT22;53624;0.000;0.000;2023-05-29T12:33:03;32.90;79.60
66710;DHT22;53624;0.000;0.000;2023-05-29T12:35:32;32.90;79.40
66710;DHT22;53624;0.000;0.000;2023-05-29T12:38:00;33.00;79.30
66710;DHT22;53624;0.000;0.000;2023-05-29T12:40:28;33.00;79.40
66710;DHT22;53624;0.000;0.000;2023-05-29T12:42:56;33.00;79.30
66710;DHT22;53624;0.000;0.000;2023-05-29T12:45:25;33.00;79.30
66710;DHT22;53624;0.000;0.000;2023-05-29T12:47:53;33.10;79.40
66710;DHT22;53624;0.000;0.000;2023-05-29T12:50:22;33.10;79.30
66710;DHT22;53624;0.000;0.000;2023-05-29T12:52:53;33.10;79.10
66710;DHT22;53624;0.000;0.000;2023-05-29T12:55:21;33.10;79.20
66710;DHT22;53624;0.000;0.000;2023-05-29T12:57:48;33.10;78.90
66710;DHT22;53624;0.000;0.000;2023-05-29T13:00:16;33.20;78.90
66710;DHT22;53624;0.000;0.000;2023-05-29T13:02:45;33.20;78.60
66710;DHT22;53624;0.000;0.000;2023-05-29T13:05:12;33.20;78.50
66710;DHT22;53624;0.000;0.000;2023-05-29T13:07:41;33.20;78.50
66710;DHT22;53624;0.000;0.000;2023-05-29T13:10:09;33.30;78.40
66710;DHT22;53624;0.000;0.000;2023-05-29T13:12:36;33.30;78.50
66710;DHT22;53624;0.000;0.000;2023-05-29T13:15:04;33.30;78.60
66710;DHT22;53624;0.000;0.000;2023-05-29T13:17:32;33.30;78.70
66710;DHT22;53624;0.000;0.000;2023-05-29T13:20:00;33.30;78.70
66710;DHT22;53624;0.000;0.000;2023-05-29T13:22:34;33.30;78.50
66710;DHT22;53624;0.000;0.000;2023-05-29T13:25:01;33.30;78.50
66710;DHT22;53624;0.000;0.000;2023-05-29T13:27:30;33.40;78.50
66710;DHT22;53624;0.000;0.000;2023-05-29T13:29:57;33.40;78.60
66710;DHT22;53624;0.000;0.000;2023-05-29T13:32:24;33.40;78.40
66710;DHT22;53624;0.000;0.000;2023-05-29T13:34:52;33.40;78.40
66710;DHT22;53624;0.000;0.000;2023-05-29T13:37:21;33.40;78.50
66710;DHT22;53624;0.000;0.000;2023-05-29T13:39:48;33.40;78.60
66710;DHT22;53624;0.000;0.000;2023-05-29T13:42:17;33.40;78.70
66710;DHT22;53624;0.000;0.000;2023-05-29T13:44:44;33.40;78.80
66710;DHT22;53624;0.000;0.000;2023-05-29T13:47:11;33.40;78.80
66710;DHT22;53624;0.000;0.000;2023-05-29T13:49:39;33.40;79.60
66710;DHT22;53624;0.000;0.000;2023-05-29T13:52:06;33.30;79.00
66710;DHT22;53624;0.000;0.000;2023-05-29T13:54:35;33.30;79.10
66710;DHT22;53624;0.000;0.000;2023-05-29T13:57:03;33.30;79.20
66710;DHT22;53624;0.000;0.000;2023-05-29T13:59:31;33.30;79.20
66710;DHT22;53624;0.000;0.000;2023-05-29T14:01:59;33.30;79.10
66710;DHT22;53624;0.000;0.000;2023-05-29T14:04:26;33.40;79.30
66710;DHT22;53624;0.000;0.000;2023-05-29T14:06:54;33.20;79.50
66710;DHT22;53624;0.000;0.000;2023-05-29T14:09:22;33.10;79.90
66710;DHT22;53624;0.000;0.000;2023-05-29T14:11:55;33.20;79.80
66710;DHT22;53624;0.000;0.000;2023-05-29T14:14:22;33.30;79.70
66710;DHT22;53624;0.000;0.000;2023-05-29T14:16:50;33.30;79.60
66710;DHT22;53624;0.000;0.000;2023-05-29T14:19:17;33.00;74.10
66710;DHT22;53624;0.000;0.000;2023-05-29T14:21:45;32.20;71.10
66710;DHT22;53624;0.000;0.000;2023-05-29T14:24:13;31.50;70.40
66710;DHT22;53624;0.000;0.000;2023-05-29T14:26:41;31.10;71.70
66710;DHT22;53624;0.000;0.000;2023-05-29T14:29:11;30.60;73.60
66710;DHT22;53624;0.000;0.000;2023-05-29T14:31:39;30.40;75.50
66710;DHT22;53624;0.000;0.000;2023-05-29T14:34:07;30.30;77.20
66710;DHT22;53624;0.000;0.000;2023-05-29T14:36:34;30.20;77.00
66710;DHT22;53624;0.000;0.000;2023-05-29T14:39:02;29.90;75.30
66710;DHT22;53624;0.000;0.000;2023-05-29T14:41:30;29.80;76.20
66710;DHT22;53624;0.000;0.000;2023-05-29T14:43:58;29.80;76.80
66710;DHT22;53624;0.000;0.000;2023-05-29T14:46:27;29.70;78.20
66710;DHT22;53624;0.000;0.000;2023-05-29T14:48:57;29.60;78.50
66710;DHT22;53624;0.000;0.000;2023-05-29T14:51:25;29.50;78.10
66710;DHT22;53624;0.000;0.000;2023-05-29T14:53:52;29.50;78.20
66710;DHT22;53624;0.000;0.000;2023-05-29T14:56:20;29.50;77.20
66710;DHT22;53624;0.000;0.000;2023-05-29T14:58:48;29.50;78.20
66710;DHT22;53624;0.000;0.000;2023-05-29T15:01:15;29.30;79.80
66710;DHT22;53624;0.000;0.000;2023-05-29T15:03:44;29.00;80.40
66710;DHT22;53624;0.000;0.000;2023-05-29T15:06:12;28.90;80.20
66710;DHT22;53624;0.000;0.000;2023-05-29T15:08:39;29.00;77.80
66710;DHT22;53624;0.000;0.000;2023-05-29T15:11:08;29.10;75.80
66710;DHT22;53624;0.000;0.000;2023-05-29T15:13:38;29.20;74.10
66710;DHT22;53624;0.000;0.000;2023-05-29T15:16:06;29.30;74.20
66710;DHT22;53624;0.000;0.000;2023-05-29T15:18:33;29.30;73.80
66710;DHT22;53624;0.000;0.000;2023-05-29T15:21:03;29.30;73.50
66710;DHT22;53624;0.000;0.000;2023-05-29T15:23:31;28.90;77.70
66710;DHT22;53624;0.000;0.000;2023-05-29T15:26:00;29.00;78.00
66710;DHT22;53624;0.000;0.000;2023-05-29T15:28:29;29.00;79.00
66710;DHT22;53624;0.000;0.000;2023-05-29T15:30:56;28.90;81.10
66710;DHT22;53624;0.000;0.000;2023-05-29T15:33:24;28.80;82.10
66710;DHT22;53624;0.000;0.000;2023-05-29T15:35:51;28.70;82.30
66710;DHT22;53624;0.000;0.000;2023-05-29T15:38:20;28.50;79.60
66710;DHT22;53624;0.000;0.000;2023-05-29T15:40:48;28.00;80.80
66710;DHT22;53624;0.000;0.000;2023-05-29T15:43:16;28.10;81.30
66710;DHT22;53624;0.000;0.000;2023-05-29T15:45:44;28.10;80.00
66710;DHT22;53624;0.000;0.000;2023-05-29T15:48:12;27.90;79.50
66710;DHT22;53624;0.000;0.000;2023-05-29T15:50:39;27.60;78.40
66710;DHT22;53624;0.000;0.000;2023-05-29T15:53:07;27.50;79.20
66710;DHT22;53624;0.000;0.000;2023-05-29T15:55:36;27.70;80.40
66710;DHT22;53624;0.000;0.000;2023-05-29T15:58:03;27.50;80.40